Terminal Aerodrome Forecast
Issued by NWS

Home | Current Version | Previous Version | Text Only | Print | Product List | Glossary On
Versions: 1 2 3 4 5 6 7 8 9 10 11 12 13 14 15 16 17 18 19 20 21 22 23 24 25 26 27 28 29 30 31 32 33 34 35 36 37
000
FTUS41 KBOX 261748
TAFHYA
TAF
KHYA 261748Z 2618/2718 21013G20KT P6SM SCT025 BKN120
     FM270000 21010KT P6SM SCT050 SCT100
     FM270900 21011KT 5SM BR BKN050
     FM271200 20011KT P6SM BKN090
     FM271600 20011G20KT P6SM SCT050 BKN100=

USA.gov is the U.S. government's official web portal to all federal, state and local government web resources and services.